KTVF/TVF METAR and TAF weather

Enter ICAO airport designator
Station Type Date Time Source
KTVF METAR 2020/04/10 16:56 UTC NOAA

KTVF 101656Z AUTO 22008KT 10SM FEW100 03/M04 A2994 RMK AO2 SLP156 T00281039


Station Type Date Time Source
KTVF Decoded METAR 2020/04/10 16:56 UTC NOAA

Thief River Falls, Thief River Falls Regional Airport, MN, United States (KTVF) 48-04N 096-11W
Apr 10, 2020 - 12:56 PM EDT / 2020.04.10 1656 UTC
Wind: from the SW (220 degrees) at 9 MPH (8 KT):0
Visibility: 10 mile(s):0
Sky conditions: mostly clear
Temperature: 37.0 F (2.8 C)
Dew Point: 25.0 F (-3.9 C)
Relative Humidity: 61%
Pressure (altimeter): 29.94 in. Hg (1013 hPa)
ob: KTVF 101656Z AUTO 22008KT 10SM FEW100 03/M04 A2994 RMK AO2 SLP156 T00281039
cycle: 17

Station Type Date Time Source
KTVF TAF 2020/04/10 18:30 UTC NOAA

TAF KTVF 101728Z 1018/1118 22010KT P6SM FEW100
FM110300 VRB06KT P6SM SCT080
FM111100 31008KT P6SM BKN035

Example: see airport list